Time;durP1;ratioP1;P1;durP2;ratioP2;P2;SDS_P1;SDS_P2;PMS_P1;PMS_P2;Temp;Humidity;BMP_temperature;BMP_pressure;BME280_temperature;BME280_humidity;BME280_pressure;Samples;Min_cycle;Max_cycle;Signal;HPM_P1;HPM_P2
2023/05/14 00:02:18;;;;;;;5.75;3.47;;;;;;;;;;5074045;28;20490;-78
2023/05/14 00:04:44;;;;;;;7.05;3.85;;;;;;;;;;5090950;28;20488;-78
2023/05/14 00:07:11;;;;;;;9.07;4.45;;;;;;;;;;5089034;28;20515;-77
2023/05/14 00:09:36;;;;;;;6.13;3.95;;;14.80;58.20;;;;;;5094718;28;20622;-75
2023/05/14 00:12:03;;;;;;;10.32;3.70;;;13.80;62.30;;;;;;5096544;28;20106;-76
2023/05/14 00:14:28;;;;;;;6.15;3.70;;;13.70;62.30;;;;;;5095749;28;20035;-82
2023/05/14 00:16:54;;;;;;;9.10;3.70;;;13.70;62.60;;;;;;5100043;28;20028;-80
2023/05/14 00:19:20;;;;;;;8.88;3.17;;;13.70;62.70;;;;;;5095573;28;20043;-80
2023/05/14 00:21:47;;;;;;;6.07;3.40;;;13.60;62.60;;;;;;5106030;28;20032;-82
2023/05/14 00:24:13;;;;;;;9.70;3.63;;;13.60;62.70;;;;;;5103893;28;20039;-82
2023/05/14 00:26:39;;;;;;;4.50;3.22;;;13.50;62.80;;;;;;5092048;28;20426;-81
2023/05/14 00:29:05;;;;;;;6.13;3.28;;;13.50;63.00;;;;;;5102204;28;20051;-79
2023/05/14 00:31:31;;;;;;;5.65;3.30;;;13.50;63.20;;;;;;5102650;28;20058;-80
2023/05/14 00:33:57;;;;;;;4.78;3.47;;;13.40;63.30;;;;;;5095699;28;20016;-80
2023/05/14 00:36:23;;;;;;;5.00;3.20;;;13.40;63.40;;;;;;5081596;28;20077;-80
2023/05/14 00:38:49;;;;;;;5.70;3.63;;;13.40;63.70;;;;;;5102249;28;20477;-81
2023/05/14 00:41:14;;;;;;;7.15;3.53;;;13.30;63.80;;;;;;5101249;28;20054;-82
2023/05/14 00:43:40;;;;;;;13.50;3.40;;;13.20;64.10;;;;;;5096717;28;20016;-82
2023/05/14 00:46:06;;;;;;;6.97;3.38;;;13.20;64.10;;;;;;5095292;28;20532;-81
2023/05/14 00:48:33;;;;;;;7.20;3.15;;;13.20;64.30;;;;;;5091688;28;20020;-79
2023/05/14 00:50:59;;;;;;;8.38;3.30;;;13.20;64.20;;;;;;5097587;28;20012;-81
2023/05/14 00:53:25;;;;;;;8.35;3.83;;;13.20;64.50;;;;;;5099892;28;20020;-82
2023/05/14 00:55:51;;;;;;;9.13;3.80;;;13.20;64.60;;;;;;5094429;28;20024;-81
2023/05/14 00:58:18;;;;;;;7.68;3.40;;;13.20;64.70;;;;;;5076084;28;20027;-81
2023/05/14 01:00:44;;;;;;;9.20;3.72;;;13.10;64.80;;;;;;5094798;28;20028;-82
2023/05/14 01:03:10;;;;;;;8.02;3.72;;;13.10;64.90;;;;;;5093917;28;20025;-82
2023/05/14 01:06:18;;;;;;;6.22;3.50;;;13.10;65.10;;;;;;5088724;28;20039;-81
2023/05/14 01:09:03;;;;;;;8.77;3.40;;;13.00;65.40;;;;;;5092082;28;20039;-80
2023/05/14 01:11:35;;;;;;;7.07;3.50;;;13.00;65.50;;;;;;5085378;28;20024;-81
2023/05/14 01:14:13;;;;;;;9.85;3.25;;;12.90;65.70;;;;;;5082288;28;20028;-80
2023/05/14 01:16:39;;;;;;;5.45;3.30;;;12.90;65.90;;;;;;5093007;28;20024;-81
2023/05/14 01:19:20;;;;;;;8.52;3.65;;;12.90;66.10;;;;;;5093391;28;20036;-81
2023/05/14 01:21:46;;;;;;;5.50;3.30;;;12.80;66.20;;;;;;5091428;28;20112;-81
2023/05/14 01:24:11;;;;;;;5.85;2.83;;;12.80;66.40;;;;;;5092930;28;20520;-83
2023/05/14 01:26:37;;;;;;;8.10;3.35;;;12.70;66.60;;;;;;5083263;28;20032;-81
2023/05/14 01:29:08;;;;;;;3.55;2.88;;;12.70;66.80;;;;;;5094436;28;20031;-79
2023/05/14 01:31:37;;;;;;;6.45;3.13;;;12.70;66.80;;;;;;5095442;28;20161;-82
2023/05/14 01:34:05;;;;;;;7.40;2.95;;;12.70;67.10;;;;;;5101351;28;20027;-81
2023/05/14 01:36:32;;;;;;;9.80;3.53;;;12.70;67.20;;;;;;5097965;28;20020;-82
2023/05/14 01:39:00;;;;;;;4.30;3.30;;;12.70;67.20;;;;;;5083971;28;20111;-80
2023/05/14 01:41:27;;;;;;;9.90;3.67;;;12.70;67.20;;;;;;5088491;28;20020;-81
2023/05/14 01:43:53;;;;;;;5.72;3.47;;;12.60;67.30;;;;;;5093048;28;20016;-82
2023/05/14 01:46:19;;;;;;;7.28;3.58;;;12.60;67.30;;;;;;5093149;28;20024;-82
2023/05/14 01:48:45;;;;;;;7.05;3.60;;;12.60;67.50;;;;;;5093131;28;20499;-82
2023/05/14 01:51:13;;;;;;;17.05;8.35;;;12.60;67.50;;;;;;5074746;28;20020;-81
2023/05/14 01:53:39;;;;;;;5.22;3.40;;;12.60;67.70;;;;;;5093341;28;20040;-82
2023/05/14 01:56:05;;;;;;;7.38;4.50;;;12.60;67.70;;;;;;5092114;28;20475;-83
2023/05/14 01:58:32;;;;;;;6.43;3.55;;;12.60;67.70;;;;;;5086553;28;20036;-83
2023/05/14 02:00:57;;;;;;;6.25;2.75;;;12.60;67.80;;;;;;5093020;28;20457;-82
2023/05/14 02:03:23;;;;;;;6.88;3.03;;;12.60;68.50;;;;;;5089502;28;20052;-82
2023/05/14 02:05:50;;;;;;;9.65;3.17;;;12.60;68.00;;;;;;5094573;28;20046;-82
2023/05/14 02:08:15;;;;;;;8.23;3.35;;;12.60;68.00;;;;;;5101432;28;20041;-82
2023/05/14 02:10:41;;;;;;;5.50;3.17;;;12.60;68.10;;;;;;5092653;28;20084;-81
2023/05/14 02:13:08;;;;;;;7.05;3.60;;;12.60;68.20;;;;;;5088752;28;20025;-82
2023/05/14 02:15:34;;;;;;;6.17;3.10;;;12.50;68.20;;;;;;5087190;28;20469;-84
2023/05/14 02:18:00;;;;;;;5.88;3.30;;;12.60;68.30;;;;;;5092997;28;20256;-82
2023/05/14 02:20:26;;;;;;;5.35;3.20;;;12.60;68.40;;;;;;5075774;28;20132;-83
2023/05/14 02:22:51;;;;;;;10.98;3.25;;;12.60;68.50;;;;;;5094303;28;20473;-81
2023/05/14 02:25:17;;;;;;;7.88;3.28;;;12.60;68.40;;;;;;5096955;28;20358;-82
2023/05/14 02:27:43;;;;;;;6.88;3.15;;;12.60;68.40;;;;;;5093756;28;20020;-82
2023/05/14 02:30:10;;;;;;;6.63;3.35;;;12.60;68.40;;;;;;5094703;28;20026;-82
2023/05/14 02:32:36;;;;;;;4.63;3.00;;;12.60;68.50;;;;;;5089959;28;20028;-80
2023/05/14 02:35:01;;;;;;;4.22;3.30;;;12.70;68.50;;;;;;5067481;28;20070;-81
2023/05/14 02:37:27;;;;;;;12.50;3.28;;;12.70;68.40;;;;;;5092140;28;20044;-83
2023/05/14 02:39:53;;;;;;;4.55;2.67;;;12.70;68.30;;;;;;5092191;28;20104;-82
2023/05/14 02:42:19;;;;;;;4.80;3.05;;;12.80;68.20;;;;;;5087486;28;20031;-82
2023/05/14 02:44:45;;;;;;;6.72;3.05;;;12.80;68.00;;;;;;5075060;28;20397;-81
2023/05/14 02:47:11;;;;;;;6.38;3.45;;;12.90;67.80;;;;;;5095503;28;20023;-83
2023/05/14 02:49:37;;;;;;;7.20;3.13;;;13.00;67.70;;;;;;5093856;28;20035;-84
2023/05/14 02:52:02;;;;;;;4.90;3.05;;;13.00;67.60;;;;;;5088805;28;20380;-82
2023/05/14 02:54:28;;;;;;;6.72;3.08;;;13.00;67.80;;;;;;5092676;28;20024;-80
2023/05/14 02:56:54;;;;;;;4.32;3.47;;;13.00;67.60;;;;;;5092538;28;20032;-81
2023/05/14 02:59:20;;;;;;;5.35;3.67;;;13.00;67.50;;;;;;5084115;28;20036;-81
2023/05/14 03:01:46;;;;;;;5.45;3.15;;;13.00;67.70;;;;;;5092422;28;20033;-81
2023/05/14 03:04:12;;;;;;;4.75;3.40;;;13.10;67.60;;;;;;5074598;28;20035;-81
2023/05/14 03:06:38;;;;;;;8.98;3.63;;;13.10;67.50;;;;;;5092068;28;20050;-81
2023/05/14 03:09:06;;;;;;;9.18;3.63;;;13.10;67.70;;;;;;5092226;28;20031;-81
2023/05/14 03:11:32;;;;;;;6.93;3.63;;;13.20;67.50;;;;;;5078197;28;20023;-81
2023/05/14 03:13:58;;;;;;;6.57;3.58;;;13.20;67.40;;;;;;5091596;28;20124;-81
2023/05/14 03:16:24;;;;;;;7.05;3.13;;;13.20;67.30;;;;;;5096224;28;20016;-80
2023/05/14 03:18:49;;;;;;;3.67;3.28;;;13.30;67.40;;;;;;5095933;28;20100;-80
2023/05/14 03:21:15;;;;;;;3.45;2.97;;;13.30;67.30;;;;;;5077706;28;20055;-82
2023/05/14 03:23:41;;;;;;;5.68;3.28;;;13.30;67.40;;;;;;5096663;28;20074;-82
2023/05/14 03:26:07;;;;;;;5.82;2.85;;;13.30;67.30;;;;;;5115012;28;20028;-80
2023/05/14 03:28:33;;;;;;;5.40;3.33;;;13.40;67.20;;;;;;5096881;28;20103;-81
2023/05/14 03:30:59;;;;;;;6.80;3.10;;;13.50;67.00;;;;;;5098138;28;20027;-82
2023/05/14 03:33:25;;;;;;;3.35;3.05;;;13.50;67.20;;;;;;5078263;28;20498;-80
2023/05/14 03:35:51;;;;;;;6.82;4.53;;;13.50;67.10;;;;;;5097086;28;20024;-80
2023/05/14 03:38:17;;;;;;;7.00;4.38;;;13.50;66.90;;;;;;5093884;28;20020;-82
2023/05/14 03:40:44;;;;;;;7.65;4.75;;;13.40;67.00;;;;;;5101144;28;20036;-80
2023/05/14 03:43:10;;;;;;;15.87;8.07;;;13.40;67.40;;;;;;5100279;28;20359;-82
2023/05/14 03:45:36;;;;;;;4.28;3.28;;;13.40;67.70;;;;;;5082820;28;20484;-81
2023/05/14 03:48:02;;;;;;;9.40;5.95;;;13.50;67.30;;;;;;5097865;28;20099;-83
2023/05/14 03:50:28;;;;;;;12.35;5.10;;;13.50;67.20;;;;;;5099587;28;20024;-81
2023/05/14 03:52:54;;;;;;;5.80;3.45;;;13.50;67.40;;;;;;5097391;28;20027;-81
2023/05/14 03:55:20;;;;;;;8.38;3.65;;;13.60;67.10;;;;;;5096135;28;20067;-80
2023/05/14 03:57:47;;;;;;;6.05;3.25;;;13.70;66.80;;;;;;5092387;28;20048;-82
2023/05/14 04:00:14;;;;;;;4.35;2.78;;;13.80;66.30;;;;;;5095514;28;20034;-83
2023/05/14 04:02:40;;;;;;;4.60;3.00;;;13.90;65.80;;;;;;5095499;28;20070;-83
2023/05/14 04:05:06;;;;;;;4.93;3.40;;;14.00;65.40;;;;;;5091564;28;20024;-82
2023/05/14 04:07:32;;;;;;;7.75;4.90;;;14.00;64.80;;;;;;5085683;28;20083;-83
2023/05/14 04:09:58;;;;;;;4.70;3.00;;;13.90;65.60;;;;;;5077053;28;20016;-82
2023/05/14 04:12:25;;;;;;;3.85;2.85;;;14.00;65.70;;;;;;5096502;28;20024;-83
2023/05/14 04:14:51;;;;;;;5.07;4.05;;;14.00;65.20;;;;;;5082292;28;20132;-82
2023/05/14 04:17:17;;;;;;;5.15;3.25;;;14.10;65.50;;;;;;5101761;28;20035;-80
2023/05/14 04:19:43;;;;;;;4.88;2.90;;;14.20;65.20;;;;;;5097951;28;20020;-82
2023/05/14 04:22:09;;;;;;;7.57;3.75;;;14.30;64.60;;;;;;5075652;28;20100;-83
2023/05/14 04:24:35;;;;;;;3.85;2.90;;;14.40;64.30;;;;;;5094716;28;20020;-83
2023/05/14 04:27:01;;;;;;;5.43;3.65;;;14.50;64.10;;;;;;5095499;28;20020;-83
2023/05/14 04:29:27;;;;;;;4.38;2.40;;;14.50;63.80;;;;;;5085258;28;20024;-81
2023/05/14 04:31:52;;;;;;;6.97;3.22;;;14.60;63.50;;;;;;5077577;28;20043;-83
2023/05/14 04:34:18;;;;;;;5.28;4.18;;;14.60;63.30;;;;;;5096436;28;20024;-82
2023/05/14 04:36:44;;;;;;;12.20;3.58;;;14.60;63.00;;;;;;5076207;28;20438;-81
2023/05/14 04:39:11;;;;;;;8.07;3.20;;;14.60;63.30;;;;;;5085909;28;20478;-82
2023/05/14 04:41:37;;;;;;;4.70;2.63;;;14.70;63.40;;;;;;5095028;28;20024;-81
2023/05/14 04:44:03;;;;;;;6.63;3.05;;;14.80;62.50;;;;;;5093819;28;20024;-82
2023/05/14 04:46:29;;;;;;;5.10;2.83;;;14.90;62.80;;;;;;5076818;28;20443;-82
2023/05/14 04:48:55;;;;;;;5.57;3.05;;;14.90;62.70;;;;;;5095023;28;20027;-81
2023/05/14 04:51:22;;;;;;;6.18;2.90;;;14.90;62.90;;;;;;5095570;28;20017;-82
2023/05/14 04:53:48;;;;;;;4.55;3.08;;;15.20;63.00;;;;;;5077273;28;20422;-82
2023/05/14 04:56:14;;;;;;;4.72;2.92;;;15.90;62.70;;;;;;5077537;28;20166;-84
2023/05/14 04:58:40;;;;;;;7.03;3.95;;;;;;;;;;5095033;28;20012;-82
2023/05/14 05:01:07;;;;;;;5.57;2.90;;;;;;;;;;5076195;28;20050;-81
2023/05/14 05:03:33;;;;;;;5.97;3.10;;;;;;;;;;5087502;28;20078;-80
2023/05/14 05:05:59;;;;;;;8.60;3.25;;;;;;;;;;5096015;28;20400;-82
2023/05/14 05:08:25;;;;;;;7.85;3.85;;;;;;;;;;5099342;28;20008;-82
2023/05/14 05:10:52;;;;;;;6.13;3.63;;;;;;;;;;5093819;28;20016;-81
2023/05/14 05:13:18;;;;;;;5.47;3.05;;;;;;;;;;5090657;28;20020;-83
2023/05/14 05:15:44;;;;;;;5.80;2.90;;;;;;;;;;5084366;28;20052;-81
2023/05/14 05:18:10;;;;;;;6.77;2.10;;;;;;;;;;5082360;28;20475;-82
2023/05/14 05:20:36;;;;;;;4.20;2.00;;;16.70;59.30;;;;;;5086665;28;20297;-84
2023/05/14 05:23:02;;;;;;;5.32;2.45;;;22.60;46.00;;;;;;5104085;28;20012;-83
2023/05/14 05:25:28;;;;;;;5.70;2.58;;;22.80;45.20;;;;;;5107687;28;20058;-83
2023/05/14 05:27:54;;;;;;;2.97;2.08;;;22.70;44.50;;;;;;5109268;28;20024;-83
2023/05/14 05:30:20;;;;;;;5.93;2.22;;;22.80;44.30;;;;;;5112130;28;20012;-83
2023/05/14 05:32:46;;;;;;;6.60;2.65;;;23.00;43.60;;;;;;5081466;28;20374;-82
2023/05/14 05:35:11;;;;;;;4.97;3.28;;;23.10;43.50;;;;;;5090955;28;20035;-83
2023/05/14 05:37:37;;;;;;;3.97;2.35;;;23.40;44.10;;;;;;5100819;28;20490;-82
2023/05/14 05:40:05;;;;;;;3.75;2.00;;;24.20;42.20;;;;;;5091301;28;20100;-82
2023/05/14 05:42:30;;;;;;;;;;;25.00;40.80;;;;;;5085315;28;20039;-83
2023/05/14 05:44:56;;;;;;;3.80;1.93;;;25.70;41.50;;;;;;5076634;28;20348;-82
2023/05/14 05:47:25;;;;;;;4.03;2.60;;;25.40;38.80;;;;;;5093732;28;20025;-84
2023/05/14 05:49:52;;;;;;;2.35;1.80;;;24.60;39.90;;;;;;5093609;28;20132;-83
2023/05/14 05:52:18;;;;;;;2.53;2.00;;;24.70;40.20;;;;;;5092994;28;20080;-81
2023/05/14 05:54:44;;;;;;;4.40;1.92;;;25.90;39.10;;;;;;5072102;28;20116;-84
2023/05/14 05:57:10;;;;;;;2.95;2.03;;;27.30;38.00;;;;;;5097341;28;20062;-84
2023/05/14 05:59:36;;;;;;;4.45;2.20;;;27.40;36.80;;;;;;5104242;28;20024;-82
2023/05/14 06:02:02;;;;;;;2.38;1.77;;;28.20;36.50;;;;;;5076559;28;20077;-84
2023/05/14 06:04:28;;;;;;;8.77;4.22;;;28.70;35.70;;;;;;5067979;28;20033;-86
2023/05/14 06:06:53;;;;;;;7.45;2.67;;;29.10;35.60;;;;;;5044366;28;20053;-83
2023/05/14 06:09:20;;;;;;;6.75;2.88;;;29.60;34.90;;;;;;5076792;28;20051;-82
2023/05/14 06:11:45;;;;;;;7.57;2.73;;;30.60;34.10;;;;;;5075717;28;20105;-82
2023/05/14 06:14:13;;;;;;;3.00;2.03;;;31.50;33.40;;;;;;5061082;28;20469;-84
2023/05/14 06:16:39;;;;;;;3.85;1.70;;;32.30;32.70;;;;;;5071022;28;20025;-82
2023/05/14 06:19:05;;;;;;;13.17;3.53;;;32.90;31.60;;;;;;5074358;28;20031;-84
2023/05/14 06:21:31;;;;;;;13.13;3.28;;;32.80;31.00;;;;;;5073821;28;20024;-84
2023/05/14 06:24:00;;;;;;;11.83;4.47;;;32.10;31.40;;;;;;5073194;28;20125;-83
2023/05/14 06:26:26;;;;;;;9.98;4.47;;;31.80;31.90;;;;;;5066350;28;20452;-83
2023/05/14 06:28:51;;;;;;;10.93;5.77;;;31.40;31.10;;;;;;5071392;28;20024;-81
2023/05/14 06:31:18;;;;;;;5.05;2.20;;;30.90;32.10;;;;;;5072697;28;20021;-84
2023/05/14 06:33:44;;;;;;;3.55;1.80;;;30.00;31.60;;;;;;5073634;28;20021;-81
2023/05/14 06:36:10;;;;;;;2.80;1.08;;;28.90;32.60;;;;;;5072379;28;20025;-83
2023/05/14 06:38:36;;;;;;;8.20;2.03;;;27.80;33.50;;;;;;5072677;28;20050;-84
2023/05/14 06:41:02;;;;;;;3.13;1.50;;;27.00;34.40;;;;;;5072524;28;20468;-81
2023/05/14 06:43:28;;;;;;;3.75;1.80;;;28.00;34.40;;;;;;5080931;28;20028;-82
2023/05/14 06:45:54;;;;;;;2.92;1.35;;;28.80;33.30;;;;;;5085629;28;20016;-80
2023/05/14 06:48:20;;;;;;;4.20;1.70;;;28.00;32.90;;;;;;5078717;28;20020;-81
2023/05/14 06:50:47;;;;;;;4.45;1.60;;;26.40;33.40;;;;;;5074243;28;20040;-82
2023/05/14 06:53:14;;;;;;;4.63;2.05;;;25.40;35.60;;;;;;5074324;28;20100;-83
2023/05/14 06:55:40;;;;;;;5.00;2.85;;;26.30;35.80;;;;;;5073194;28;20023;-83
2023/05/14 06:58:07;;;;;;;6.07;1.95;;;28.30;34.40;;;;;;5068267;28;20021;-81
2023/05/14 07:00:32;;;;;;;3.03;1.43;;;27.60;32.60;;;;;;5074094;28;20112;-83
2023/05/14 07:02:58;;;;;;;4.32;2.90;;;25.90;34.30;;;;;;5072411;28;20060;-84
2023/05/14 07:05:25;;;;;;;3.78;2.55;;;25.80;36.10;;;;;;5074017;28;20036;-83
2023/05/14 07:07:51;;;;;;;3.83;1.63;;;;;;;;;;5100827;28;20044;-84
2023/05/14 07:10:17;;;;;;;6.30;2.30;;;25.10;35.30;;;;;;5087699;28;20028;-84
2023/05/14 07:12:43;;;;;;;2.92;1.92;;;22.70;37.80;;;;;;5087410;28;20113;-83
2023/05/14 07:15:09;;;;;;;6.13;2.85;;;21.40;39.80;;;;;;5085171;28;20057;-84
2023/05/14 07:17:36;;;;;;;5.85;3.78;;;20.40;41.90;;;;;;5086516;28;20023;-84
2023/05/14 07:20:02;;;;;;;4.90;2.03;;;;;;;;;;5074199;28;20062;-84
2023/05/14 07:22:28;;;;;;;11.07;5.93;;;19.90;42.90;;;;;;5091447;28;20028;-83
2023/05/14 07:24:54;;;;;;;5.53;1.90;;;19.70;44.80;;;;;;5094561;28;20028;-82
2023/05/14 07:27:20;;;;;;;3.78;1.80;;;21.60;43.10;;;;;;5092490;28;20055;-81
2023/05/14 07:29:46;;;;;;;3.00;1.60;;;24.60;38.60;;;;;;5098126;28;20032;-81
2023/05/14 07:32:12;;;;;;;4.22;1.60;;;24.50;36.00;;;;;;5084547;28;20024;-84
2023/05/14 07:34:37;;;;;;;4.88;1.90;;;23.00;37.60;;;;;;5092155;28;20024;-86
2023/05/14 07:37:03;;;;;;;5.28;2.60;;;22.10;39.90;;;;;;5080832;28;20012;-82
2023/05/14 07:39:29;;;;;;;6.15;1.95;;;23.20;39.60;;;;;;5092825;28;20035;-83
2023/05/14 07:41:55;;;;;;;5.50;2.08;;;25.60;37.00;;;;;;5089113;28;20031;-81
2023/05/14 07:44:21;;;;;;;4.50;2.08;;;26.80;34.60;;;;;;5082505;28;20024;-82
2023/05/14 07:46:47;;;;;;;2.67;1.52;;;26.70;34.20;;;;;;5092856;28;20377;-83
2023/05/14 07:49:13;;;;;;;7.22;1.50;;;25.30;34.80;;;;;;5081343;28;20370;-84
2023/05/14 07:51:39;;;;;;;3.85;1.48;;;23.80;36.10;;;;;;5091338;28;20030;-82
2023/05/14 07:54:10;;;;;;;6.45;1.67;;;22.70;37.80;;;;;;5057715;28;20054;-81
2023/05/14 07:56:36;;;;;;;3.25;1.50;;;21.90;39.00;;;;;;5088662;28;20028;-82
2023/05/14 07:59:07;;;;;;;2.38;1.02;;;21.40;40.00;;;;;;5094238;28;20027;-82
2023/05/14 08:01:33;;;;;;;3.67;1.67;;;20.80;40.90;;;;;;5092938;28;20032;-83
2023/05/14 08:03:59;;;;;;;6.97;1.67;;;20.60;41.60;;;;;;5095073;28;20095;-85
2023/05/14 08:06:26;;;;;;;2.28;1.48;;;21.00;41.40;;;;;;5097169;28;20052;-83
2023/05/14 08:08:52;;;;;;;4.90;1.58;;;20.90;41.40;;;;;;5094129;28;20069;-82
2023/05/14 08:11:18;;;;;;;4.47;1.60;;;20.70;41.90;;;;;;5096515;28;20024;-83
2023/05/14 08:13:44;;;;;;;5.57;2.20;;;20.40;42.40;;;;;;5095299;28;20024;-81
2023/05/14 08:16:10;;;;;;;5.88;1.55;;;20.40;42.50;;;;;;5085526;28;20051;-83
2023/05/14 08:18:36;;;;;;;4.55;2.15;;;20.30;42.60;;;;;;5089093;28;20037;-81
2023/05/14 08:21:02;;;;;;;5.53;1.83;;;20.30;42.90;;;;;;5089053;28;20178;-81
2023/05/14 08:23:27;;;;;;;2.20;1.63;;;22.20;42.30;;;;;;5079664;28;20028;-82
2023/05/14 08:25:53;;;;;;;9.93;1.90;;;23.90;38.00;;;;;;5096587;28;20099;-82
2023/05/14 08:28:19;;;;;;;2.83;1.35;;;24.00;37.30;;;;;;5085881;28;20017;-88
2023/05/14 08:30:46;;;;;;;2.97;1.73;;;23.60;37.30;;;;;;5095851;28;20036;-80
2023/05/14 08:33:12;;;;;;;3.50;1.60;;;22.80;38.50;;;;;;5094627;28;20049;-86
2023/05/14 08:35:38;;;;;;;7.70;1.90;;;22.20;39.30;;;;;;5101599;28;20028;-85
2023/05/14 08:38:04;;;;;;;3.90;1.90;;;21.80;40.10;;;;;;5081619;28;20101;-85
2023/05/14 08:40:30;;;;;;;3.58;1.58;;;21.50;41.00;;;;;;5118576;28;20476;-83
2023/05/14 08:42:57;;;;;;;5.78;2.50;;;21.30;41.30;;;;;;5099418;28;20050;-82
2023/05/14 08:45:32;;;;;;;8.85;3.28;;;21.10;41.80;;;;;;5099442;28;20085;-83
2023/05/14 08:48:03;;;;;;;8.65;2.50;;;20.80;42.40;;;;;;5082364;28;20512;-82
2023/05/14 08:50:30;;;;;;;6.40;2.03;;;20.50;42.80;;;;;;5073825;28;20024;-84
2023/05/14 08:52:56;;;;;;;5.15;2.28;;;20.20;43.50;;;;;;5071707;28;20389;-82
2023/05/14 08:55:22;;;;;;;6.18;1.75;;;19.90;44.10;;;;;;5098914;28;20104;-84
2023/05/14 08:57:48;;;;;;;6.72;3.22;;;19.70;44.50;;;;;;5095920;28;20470;-83
2023/05/14 09:00:14;;;;;;;5.63;2.13;;;19.50;45.10;;;;;;5075206;28;20405;-83
2023/05/14 09:02:41;;;;;;;4.43;1.77;;;19.40;45.60;;;;;;5077290;28;20020;-84
2023/05/14 09:05:08;;;;;;;6.20;2.10;;;19.40;45.30;;;;;;5101838;28;20028;-83
2023/05/14 09:07:35;;;;;;;3.50;2.28;;;19.20;45.30;;;;;;5104967;28;20036;-82
2023/05/14 09:10:03;;;;;;;8.93;4.63;;;19.40;45.70;;;;;;5104474;28;20109;-87
2023/05/14 09:12:32;;;;;;;8.23;3.83;;;19.30;45.20;;;;;;5086245;28;20032;-89
2023/05/14 09:15:01;;;;;;;2.63;1.90;;;19.30;45.40;;;;;;5065935;28;20039;-88
2023/05/14 09:17:27;;;;;;;6.88;1.90;;;19.60;45.10;;;;;;5077908;28;20072;-81
2023/05/14 09:19:53;;;;;;;5.70;1.90;;;20.00;44.80;;;;;;5093586;28;20460;-80
2023/05/14 09:22:20;;;;;;;5.95;2.47;;;20.20;44.40;;;;;;5092338;28;20020;-84
2023/05/14 09:24:46;;;;;;;5.07;2.70;;;20.60;44.10;;;;;;5091175;28;20039;-80
2023/05/14 09:27:21;;;;;;;3.13;1.90;;;21.00;43.50;;;;;;5101141;28;20248;-81
2023/05/14 09:29:47;;;;;;;5.82;2.92;;;20.80;42.20;;;;;;5108039;28;20052;-81
2023/05/14 09:32:13;;;;;;;7.72;3.97;;;20.70;42.50;;;;;;5108696;28;20022;-79
2023/05/14 09:34:39;;;;;;;5.45;2.53;;;20.40;42.80;;;;;;5100644;28;20019;-80
2023/05/14 09:37:07;;;;;;;12.57;5.57;;;20.10;43.00;;;;;;5089059;28;20040;-84
2023/05/14 09:39:35;;;;;;;4.88;2.65;;;20.00;43.80;;;;;;5116992;28;20059;-86
2023/05/14 09:42:01;;;;;;;9.05;2.10;;;20.00;43.80;;;;;;5110237;28;20024;-87
2023/05/14 09:44:28;;;;;;;3.63;1.25;;;20.20;43.90;;;;;;5101917;28;20500;-87
2023/05/14 09:46:54;;;;;;;3.40;1.80;;;20.30;43.80;;;;;;5098589;28;20051;-86
2023/05/14 09:49:21;;;;;;;4.45;1.63;;;20.70;43.70;;;;;;5102630;28;20024;-86
2023/05/14 09:51:50;;;;;;;2.43;2.23;;;21.20;43.00;;;;;;5096572;28;20028;-85
2023/05/14 09:54:16;;;;;;;3.95;2.33;;;21.60;42.10;;;;;;5112114;28;20268;-82
2023/05/14 09:56:43;;;;;;;6.60;1.92;;;21.70;42.50;;;;;;5101003;28;20028;-83
2023/05/14 09:59:09;;;;;;;3.80;1.30;;;21.70;41.20;;;;;;5114245;28;20096;-83
2023/05/14 10:01:36;;;;;;;2.50;1.67;;;21.50;40.40;;;;;;5103239;28;20028;-84
2023/05/14 10:04:05;;;;;;;2.83;1.58;;;21.30;40.90;;;;;;5112511;28;20069;-84
2023/05/14 10:06:36;;;;;;;3.97;1.30;;;21.40;40.90;;;;;;5117758;28;20047;-85
2023/05/14 10:09:10;;;;;;;2.35;1.48;;;21.80;40.40;;;;;;5097278;28;20046;-82
2023/05/14 10:11:37;;;;;;;3.08;1.67;;;22.30;39.20;;;;;;5080550;28;20114;-84
2023/05/14 10:14:35;;;;;;;5.72;2.55;;;22.70;38.80;;;;;;5086308;28;20021;-85
2023/05/14 10:17:02;;;;;;;6.13;1.67;;;23.00;39.30;;;;;;5090651;28;20038;-85
2023/05/14 10:19:34;;;;;;;5.90;2.17;;;22.70;39.00;;;;;;5108042;28;20100;-85
2023/05/14 10:22:08;;;;;;;6.68;2.08;;;21.80;40.20;;;;;;5102311;28;20024;-86
2023/05/14 10:24:37;;;;;;;7.18;3.08;;;21.50;40.80;;;;;;5107303;28;20031;-83
2023/05/14 10:27:03;;;;;;;4.07;2.22;;;21.00;41.10;;;;;;5113644;28;20015;-85
2023/05/14 10:29:37;;;;;;;13.52;8.45;;;20.70;42.00;;;;;;5112209;28;20022;-84
2023/05/14 10:32:07;;;;;;;17.35;5.65;;;20.40;42.00;;;;;;5104864;28;20024;-86
2023/05/14 10:34:39;;;;;;;6.03;2.70;;;20.30;42.60;;;;;;5115376;28;20069;-85
2023/05/14 10:37:09;;;;;;;7.80;4.50;;;20.20;42.70;;;;;;5111047;28;20028;-84
2023/05/14 10:39:45;;;;;;;8.82;5.07;;;20.20;42.30;;;;;;5103574;28;20480;-86
2023/05/14 10:42:45;;;;;;;3.70;2.83;;;20.10;42.70;;;;;;5108629;28;20061;-83
2023/05/14 10:45:13;;;;;;;4.00;2.70;;;20.00;42.30;;;;;;5086228;28;20036;-82
2023/05/14 10:47:42;;;;;;;4.80;3.70;;;19.80;42.80;;;;;;5092222;28;20085;-83
2023/05/14 10:50:10;;;;;;;5.60;3.65;;;19.80;43.20;;;;;;5091444;28;20020;-83
2023/05/14 10:52:36;;;;;;;10.55;4.35;;;19.90;43.20;;;;;;5104255;28;20024;-82
2023/05/14 10:55:07;;;;;;;9.57;4.00;;;20.00;43.00;;;;;;5085334;28;20024;-85
2023/05/14 10:57:36;;;;;;;3.88;2.90;;;20.00;43.10;;;;;;5108727;28;20012;-86
2023/05/14 11:00:06;;;;;;;4.28;2.30;;;19.80;43.20;;;;;;5091388;28;20063;-86
2023/05/14 11:02:40;;;;;;;4.35;2.63;;;19.50;44.20;;;;;;5086949;28;20023;-86
2023/05/14 11:05:12;;;;;;;4.25;2.35;;;19.20;44.40;;;;;;5093696;28;20032;-88
2023/05/14 11:07:46;;;;;;;2.55;1.52;;;19.10;44.70;;;;;;5082161;28;20040;-84
2023/05/14 11:10:18;;;;;;;2.28;1.25;;;19.10;44.50;;;;;;5082491;28;20023;-81
2023/05/14 11:12:46;;;;;;;4.65;1.75;;;19.20;44.80;;;;;;5072820;28;20074;-84
2023/05/14 11:15:17;;;;;;;2.90;1.27;;;19.30;44.90;;;;;;5086191;28;20032;-86
2023/05/14 11:17:44;;;;;;;3.72;1.77;;;19.30;44.20;;;;;;5092663;28;20444;-84
2023/05/14 11:20:11;;;;;;;3.00;1.55;;;19.50;44.50;;;;;;5097376;28;20091;-86
2023/05/14 11:22:39;;;;;;;5.78;1.98;;;19.60;44.20;;;;;;5093667;28;20409;-83
2023/05/14 11:25:06;;;;;;;7.88;1.90;;;19.70;44.50;;;;;;5093109;28;20020;-85
2023/05/14 11:27:38;;;;;;;5.78;2.20;;;19.70;44.40;;;;;;5093681;28;20377;-84
2023/05/14 11:30:13;;;;;;;5.38;2.50;;;19.70;44.70;;;;;;5094341;28;20063;-85
2023/05/14 11:32:39;;;;;;;3.40;1.77;;;19.70;44.60;;;;;;5100741;28;20020;-86
2023/05/14 11:35:06;;;;;;;2.35;1.95;;;19.30;45.00;;;;;;5109465;28;20019;-81
2023/05/14 11:37:31;;;;;;;5.22;2.35;;;19.00;45.50;;;;;;5099672;28;20505;-82
2023/05/14 11:40:00;;;;;;;4.75;2.65;;;19.00;46.30;;;;;;5076166;28;20032;-85
2023/05/14 11:42:26;;;;;;;12.50;3.10;;;18.90;45.40;;;;;;5080430;28;20028;-85
2023/05/14 11:44:56;;;;;;;4.25;2.25;;;19.00;45.50;;;;;;5097366;28;20489;-83
2023/05/14 11:47:21;;;;;;;3.97;2.55;;;19.00;45.50;;;;;;5100402;28;20107;-80
2023/05/14 11:49:48;;;;;;;3.92;2.38;;;19.20;45.50;;;;;;5097877;28;20055;-86
2023/05/14 11:52:18;;;;;;;6.43;2.53;;;19.30;44.90;;;;;;5102386;28;20020;-85
2023/05/14 11:54:44;;;;;;;5.57;2.30;;;19.50;44.80;;;;;;5096342;28;20749;-83
2023/05/14 11:57:12;;;;;;;4.65;2.17;;;19.60;44.60;;;;;;5077742;28;20024;-85
2023/05/14 11:59:38;;;;;;;7.03;2.50;;;19.70;44.20;;;;;;5095936;28;20043;-80
2023/05/14 12:02:07;;;;;;;3.58;1.88;;;19.70;44.40;;;;;;5083811;28;20024;-82
2023/05/14 12:04:33;;;;;;;7.57;2.78;;;19.70;44.40;;;;;;5094251;28;20028;-84
2023/05/14 12:07:06;;;;;;;8.48;2.67;;;19.70;44.60;;;;;;5103527;28;20050;-82
2023/05/14 12:09:40;;;;;;;5.03;2.33;;;19.90;44.50;;;;;;5096582;28;20035;-82
2023/05/14 12:12:11;;;;;;;7.85;2.95;;;19.70;44.40;;;;;;5083384;28;20031;-84
2023/05/14 12:14:41;;;;;;;9.85;3.80;;;19.70;44.80;;;;;;5081957;28;20027;-81
2023/05/14 12:17:20;;;;;;;5.15;2.83;;;19.60;45.20;;;;;;5073643;28;20086;-82
2023/05/14 12:19:48;;;;;;;5.97;2.40;;;19.60;45.30;;;;;;5100833;28;20048;-88
2023/05/14 12:22:21;;;;;;;6.85;2.30;;;19.60;45.60;;;;;;5086489;28;20039;-86
2023/05/14 12:24:54;;;;;;;5.28;2.30;;;19.60;45.20;;;;;;5094600;28;20045;-90
2023/05/14 12:27:25;;;;;;;5.82;2.10;;;19.70;44.70;;;;;;5087476;28;20047;-92
2023/05/14 12:30:04;;;;;;;3.03;1.60;;;19.40;45.00;;;;;;5078063;28;20035;-90
2023/05/14 12:32:31;;;;;;;3.85;2.63;;;19.30;45.30;;;;;;5076405;28;20132;-88
2023/05/14 12:34:58;;;;;;;6.35;2.55;;;19.30;45.50;;;;;;5076369;28;20032;-87
2023/05/14 12:37:24;;;;;;;3.15;1.92;;;19.50;45.20;;;;;;5076244;28;20028;-89
2023/05/14 12:39:51;;;;;;;5.47;2.38;;;19.60;45.00;;;;;;5081314;28;20071;-89
2023/05/14 12:42:17;;;;;;;5.82;1.77;;;19.60;44.90;;;;;;5074929;28;20108;-87
2023/05/14 12:44:42;;;;;;;4.60;2.70;;;19.40;45.50;;;;;;5075128;28;20446;-87
2023/05/14 12:47:08;;;;;;;8.32;2.67;;;19.20;45.90;;;;;;5076164;28;20025;-87
2023/05/14 12:49:35;;;;;;;3.70;2.17;;;19.10;46.20;;;;;;5064353;28;20021;-85
2023/05/14 12:52:02;;;;;;;7.50;2.38;;;19.10;46.30;;;;;;5091195;28;20024;-89